sensor_id;sensor_type;location;lat;lon;timestamp;P1;durP1;ratioP1;P2;durP2;ratioP2
52740;SDS011;38634;52.138;9.912;2023-09-18T00:01:55;12.88;;;2.95;;
52740;SDS011;38634;52.138;9.912;2023-09-18T00:04:40;14.95;;;3.40;;
52740;SDS011;38634;52.138;9.912;2023-09-18T00:07:25;9.25;;;3.05;;
52740;SDS011;38634;52.138;9.912;2023-09-18T00:10:10;6.43;;;2.33;;
52740;SDS011;38634;52.138;9.912;2023-09-18T00:12:55;5.53;;;1.85;;
52740;SDS011;38634;52.138;9.912;2023-09-18T00:15:40;4.55;;;2.25;;
52740;SDS011;38634;52.138;9.912;2023-09-18T00:18:24;7.55;;;2.67;;
52740;SDS011;38634;52.138;9.912;2023-09-18T00:21:09;5.93;;;2.28;;
52740;SDS011;38634;52.138;9.912;2023-09-18T00:23:55;6.82;;;2.50;;
52740;SDS011;38634;52.138;9.912;2023-09-18T00:26:40;11.18;;;4.30;;
52740;SDS011;38634;52.138;9.912;2023-09-18T00:29:24;5.82;;;2.08;;
52740;SDS011;38634;52.138;9.912;2023-09-18T00:32:09;7.35;;;2.63;;
52740;SDS011;38634;52.138;9.912;2023-09-18T00:34:53;5.55;;;2.25;;
52740;SDS011;38634;52.138;9.912;2023-09-18T00:37:38;6.47;;;2.33;;
52740;SDS011;38634;52.138;9.912;2023-09-18T00:40:23;9.10;;;2.70;;
52740;SDS011;38634;52.138;9.912;2023-09-18T00:43:08;7.70;;;2.58;;
52740;SDS011;38634;52.138;9.912;2023-09-18T00:45:54;10.65;;;2.92;;
52740;SDS011;38634;52.138;9.912;2023-09-18T00:48:39;5.80;;;2.05;;
52740;SDS011;38634;52.138;9.912;2023-09-18T00:51:23;9.27;;;2.88;;
52740;SDS011;38634;52.138;9.912;2023-09-18T00:54:08;6.60;;;2.70;;
52740;SDS011;38634;52.138;9.912;2023-09-18T00:56:53;7.97;;;3.95;;
52740;SDS011;38634;52.138;9.912;2023-09-18T00:59:39;7.50;;;2.53;;
52740;SDS011;38634;52.138;9.912;2023-09-18T01:02:23;8.60;;;3.13;;
52740;SDS011;38634;52.138;9.912;2023-09-18T01:05:08;4.97;;;1.75;;
52740;SDS011;38634;52.138;9.912;2023-09-18T01:07:53;7.72;;;2.75;;
52740;SDS011;38634;52.138;9.912;2023-09-18T01:10:44;5.40;;;2.13;;
52740;SDS011;38634;52.138;9.912;2023-09-18T01:17:04;6.95;;;2.67;;
52740;SDS011;38634;52.138;9.912;2023-09-18T01:19:51;7.30;;;2.70;;
52740;SDS011;38634;52.138;9.912;2023-09-18T01:22:36;5.57;;;2.50;;
52740;SDS011;38634;52.138;9.912;2023-09-18T01:25:20;6.95;;;2.20;;
52740;SDS011;38634;52.138;9.912;2023-09-18T01:28:05;5.75;;;2.15;;
52740;SDS011;38634;52.138;9.912;2023-09-18T01:30:49;8.27;;;2.40;;
52740;SDS011;38634;52.138;9.912;2023-09-18T01:33:34;5.75;;;2.15;;
52740;SDS011;38634;52.138;9.912;2023-09-18T01:36:20;7.80;;;2.50;;
52740;SDS011;38634;52.138;9.912;2023-09-18T01:39:05;7.13;;;2.30;;
52740;SDS011;38634;52.138;9.912;2023-09-18T01:41:50;8.52;;;2.95;;
52740;SDS011;38634;52.138;9.912;2023-09-18T01:44:35;7.97;;;2.88;;
52740;SDS011;38634;52.138;9.912;2023-09-18T01:47:23;6.53;;;2.45;;
52740;SDS011;38634;52.138;9.912;2023-09-18T01:50:08;7.15;;;2.53;;
52740;SDS011;38634;52.138;9.912;2023-09-18T01:52:53;9.07;;;2.70;;
52740;SDS011;38634;52.138;9.912;2023-09-18T01:55:37;6.32;;;2.13;;
52740;SDS011;38634;52.138;9.912;2023-09-18T01:58:22;9.57;;;2.92;;
52740;SDS011;38634;52.138;9.912;2023-09-18T02:01:06;7.95;;;2.58;;
52740;SDS011;38634;52.138;9.912;2023-09-18T02:03:51;6.90;;;2.70;;
52740;SDS011;38634;52.138;9.912;2023-09-18T02:06:36;7.97;;;2.95;;
52740;SDS011;38634;52.138;9.912;2023-09-18T02:09:20;8.05;;;2.92;;
52740;SDS011;38634;52.138;9.912;2023-09-18T02:12:05;6.63;;;2.75;;
52740;SDS011;38634;52.138;9.912;2023-09-18T02:14:50;7.40;;;2.33;;
52740;SDS011;38634;52.138;9.912;2023-09-18T02:17:34;7.00;;;2.45;;
52740;SDS011;38634;52.138;9.912;2023-09-18T02:20:19;7.22;;;2.55;;
52740;SDS011;38634;52.138;9.912;2023-09-18T02:23:03;8.50;;;2.35;;
52740;SDS011;38634;52.138;9.912;2023-09-18T02:25:54;7.70;;;2.33;;
52740;SDS011;38634;52.138;9.912;2023-09-18T02:28:42;7.63;;;2.92;;
52740;SDS011;38634;52.138;9.912;2023-09-18T02:31:27;6.93;;;2.42;;
52740;SDS011;38634;52.138;9.912;2023-09-18T02:34:11;10.50;;;2.67;;
52740;SDS011;38634;52.138;9.912;2023-09-18T02:36:56;11.02;;;2.70;;
52740;SDS011;38634;52.138;9.912;2023-09-18T02:39:40;10.02;;;2.70;;
52740;SDS011;38634;52.138;9.912;2023-09-18T08:53:16;14.98;;;3.35;;
52740;SDS011;38634;52.138;9.912;2023-09-18T08:56:01;16.42;;;3.20;;
52740;SDS011;38634;52.138;9.912;2023-09-18T08:58:48;13.82;;;3.30;;
52740;SDS011;38634;52.138;9.912;2023-09-18T09:01:32;10.80;;;2.58;;
52740;SDS011;38634;52.138;9.912;2023-09-18T09:04:17;11.63;;;3.10;;
52740;SDS011;38634;52.138;9.912;2023-09-18T09:07:02;11.93;;;3.05;;
52740;SDS011;38634;52.138;9.912;2023-09-18T09:09:47;10.15;;;2.47;;
52740;SDS011;38634;52.138;9.912;2023-09-18T09:15:47;13.52;;;3.22;;
52740;SDS011;38634;52.138;9.912;2023-09-18T09:18:33;14.55;;;3.22;;
52740;SDS011;38634;52.138;9.912;2023-09-18T09:21:17;12.95;;;2.83;;
52740;SDS011;38634;52.138;9.912;2023-09-18T09:24:02;14.52;;;3.20;;
52740;SDS011;38634;52.138;9.912;2023-09-18T09:26:56;17.73;;;5.13;;
52740;SDS011;38634;52.138;9.912;2023-09-18T09:29:42;14.05;;;3.08;;
52740;SDS011;38634;52.138;9.912;2023-09-18T09:32:47;11.43;;;2.92;;
52740;SDS011;38634;52.138;9.912;2023-09-18T09:35:36;12.00;;;3.33;;
52740;SDS011;38634;52.138;9.912;2023-09-18T09:38:22;13.10;;;2.92;;
52740;SDS011;38634;52.138;9.912;2023-09-18T09:41:17;11.32;;;2.80;;
52740;SDS011;38634;52.138;9.912;2023-09-18T09:44:02;14.80;;;3.25;;
52740;SDS011;38634;52.138;9.912;2023-09-18T09:46:49;15.65;;;4.18;;
52740;SDS011;38634;52.138;9.912;2023-09-18T09:49:47;9.65;;;2.85;;
52740;SDS011;38634;52.138;9.912;2023-09-18T09:52:35;16.60;;;4.07;;
52740;SDS011;38634;52.138;9.912;2023-09-18T09:55:28;14.82;;;3.20;;
52740;SDS011;38634;52.138;9.912;2023-09-18T09:58:14;10.82;;;2.67;;
52740;SDS011;38634;52.138;9.912;2023-09-18T10:01:01;11.38;;;2.55;;
52740;SDS011;38634;52.138;9.912;2023-09-18T10:03:50;13.93;;;2.92;;
52740;SDS011;38634;52.138;9.912;2023-09-18T10:06:36;26.88;;;5.65;;
52740;SDS011;38634;52.138;9.912;2023-09-18T10:09:21;13.55;;;3.10;;
52740;SDS011;38634;52.138;9.912;2023-09-18T10:12:10;12.48;;;3.42;;
52740;SDS011;38634;52.138;9.912;2023-09-18T10:14:56;10.20;;;2.38;;
52740;SDS011;38634;52.138;9.912;2023-09-18T10:17:42;11.00;;;2.80;;
52740;SDS011;38634;52.138;9.912;2023-09-18T10:20:30;13.35;;;3.22;;
52740;SDS011;38634;52.138;9.912;2023-09-18T10:23:20;9.18;;;2.78;;
52740;SDS011;38634;52.138;9.912;2023-09-18T10:26:11;9.85;;;2.25;;
52740;SDS011;38634;52.138;9.912;2023-09-18T10:28:59;10.55;;;3.20;;
52740;SDS011;38634;52.138;9.912;2023-09-18T10:31:46;12.00;;;2.60;;
52740;SDS011;38634;52.138;9.912;2023-09-18T10:34:31;12.80;;;3.03;;
52740;SDS011;38634;52.138;9.912;2023-09-18T10:37:17;6.75;;;1.75;;
52740;SDS011;38634;52.138;9.912;2023-09-18T10:40:05;7.97;;;2.10;;
52740;SDS011;38634;52.138;9.912;2023-09-18T10:42:51;10.23;;;2.40;;
52740;SDS011;38634;52.138;9.912;2023-09-18T10:45:37;11.00;;;2.63;;
52740;SDS011;38634;52.138;9.912;2023-09-18T10:48:22;10.95;;;2.47;;
52740;SDS011;38634;52.138;9.912;2023-09-18T10:51:07;11.70;;;2.63;;
52740;SDS011;38634;52.138;9.912;2023-09-18T10:53:52;14.30;;;3.08;;
52740;SDS011;38634;52.138;9.912;2023-09-18T10:56:37;13.35;;;3.20;;
52740;SDS011;38634;52.138;9.912;2023-09-18T10:59:23;12.15;;;2.70;;
52740;SDS011;38634;52.138;9.912;2023-09-18T11:02:08;13.27;;;3.15;;
52740;SDS011;38634;52.138;9.912;2023-09-18T11:04:52;10.95;;;2.72;;
52740;SDS011;38634;52.138;9.912;2023-09-18T11:07:38;8.85;;;2.28;;
52740;SDS011;38634;52.138;9.912;2023-09-18T11:10:26;12.50;;;2.85;;
52740;SDS011;38634;52.138;9.912;2023-09-18T11:13:11;13.38;;;2.92;;
52740;SDS011;38634;52.138;9.912;2023-09-18T11:16:01;12.50;;;2.90;;
52740;SDS011;38634;52.138;9.912;2023-09-18T11:18:50;11.15;;;2.60;;
52740;SDS011;38634;52.138;9.912;2023-09-18T11:21:38;6.60;;;2.38;;
52740;SDS011;38634;52.138;9.912;2023-09-18T11:24:22;10.55;;;2.60;;
52740;SDS011;38634;52.138;9.912;2023-09-18T11:27:07;11.15;;;2.95;;
52740;SDS011;38634;52.138;9.912;2023-09-18T11:29:53;9.77;;;2.45;;
52740;SDS011;38634;52.138;9.912;2023-09-18T11:32:40;8.48;;;2.40;;
52740;SDS011;38634;52.138;9.912;2023-09-18T11:35:25;7.55;;;2.40;;
52740;SDS011;38634;52.138;9.912;2023-09-18T11:38:10;11.25;;;3.15;;
52740;SDS011;38634;52.138;9.912;2023-09-18T11:40:55;9.20;;;2.70;;
52740;SDS011;38634;52.138;9.912;2023-09-18T11:43:41;8.93;;;2.40;;
52740;SDS011;38634;52.138;9.912;2023-09-18T11:46:25;11.07;;;2.65;;
52740;SDS011;38634;52.138;9.912;2023-09-18T11:49:14;10.20;;;2.53;;
52740;SDS011;38634;52.138;9.912;2023-09-18T11:52:00;9.80;;;2.40;;
52740;SDS011;38634;52.138;9.912;2023-09-18T11:54:45;10.85;;;2.53;;
52740;SDS011;38634;52.138;9.912;2023-09-18T11:57:34;12.25;;;3.10;;
52740;SDS011;38634;52.138;9.912;2023-09-18T12:00:19;11.30;;;2.95;;
52740;SDS011;38634;52.138;9.912;2023-09-18T12:03:15;8.10;;;2.33;;
52740;SDS011;38634;52.138;9.912;2023-09-18T12:06:10;11.65;;;3.15;;
52740;SDS011;38634;52.138;9.912;2023-09-18T12:08:58;9.93;;;2.47;;
52740;SDS011;38634;52.138;9.912;2023-09-18T12:11:42;11.15;;;2.97;;
52740;SDS011;38634;52.138;9.912;2023-09-18T12:14:27;10.60;;;2.78;;
52740;SDS011;38634;52.138;9.912;2023-09-18T12:17:17;6.15;;;1.52;;
52740;SDS011;38634;52.138;9.912;2023-09-18T12:20:03;21.38;;;4.90;;
52740;SDS011;38634;52.138;9.912;2023-09-18T12:22:50;33.33;;;7.03;;
52740;SDS011;38634;52.138;9.912;2023-09-18T12:25:34;40.60;;;8.13;;
52740;SDS011;38634;52.138;9.912;2023-09-18T12:28:22;22.17;;;5.18;;
52740;SDS011;38634;52.138;9.912;2023-09-18T12:31:29;20.23;;;5.35;;
52740;SDS011;38634;52.138;9.912;2023-09-18T12:34:19;15.43;;;4.22;;
52740;SDS011;38634;52.138;9.912;2023-09-18T12:37:10;26.42;;;5.93;;
52740;SDS011;38634;52.138;9.912;2023-09-18T12:39:59;12.93;;;4.57;;
52740;SDS011;38634;52.138;9.912;2023-09-18T12:42:44;18.50;;;5.85;;
52740;SDS011;38634;52.138;9.912;2023-09-18T12:45:29;24.92;;;7.00;;
52740;SDS011;38634;52.138;9.912;2023-09-18T12:48:13;16.75;;;4.95;;
52740;SDS011;38634;52.138;9.912;2023-09-18T12:51:02;11.38;;;4.20;;
52740;SDS011;38634;52.138;9.912;2023-09-18T12:53:58;17.13;;;5.18;;
52740;SDS011;38634;52.138;9.912;2023-09-18T12:56:44;12.68;;;5.50;;
52740;SDS011;38634;52.138;9.912;2023-09-18T12:59:33;18.05;;;5.47;;
52740;SDS011;38634;52.138;9.912;2023-09-18T13:02:21;19.50;;;5.85;;
52740;SDS011;38634;52.138;9.912;2023-09-18T13:05:06;8.13;;;3.00;;
52740;SDS011;38634;52.138;9.912;2023-09-18T13:07:51;15.45;;;5.00;;
52740;SDS011;38634;52.138;9.912;2023-09-18T13:10:46;28.98;;;7.65;;
52740;SDS011;38634;52.138;9.912;2023-09-18T13:13:36;10.77;;;3.78;;
52740;SDS011;38634;52.138;9.912;2023-09-18T13:16:21;25.92;;;7.20;;
52740;SDS011;38634;52.138;9.912;2023-09-18T13:19:06;24.35;;;6.38;;
52740;SDS011;38634;52.138;9.912;2023-09-18T13:21:51;12.02;;;3.88;;
52740;SDS011;38634;52.138;9.912;2023-09-18T13:24:38;17.98;;;5.30;;
52740;SDS011;38634;52.138;9.912;2023-09-18T13:27:23;21.25;;;6.35;;
52740;SDS011;38634;52.138;9.912;2023-09-18T13:30:08;23.90;;;6.30;;
52740;SDS011;38634;52.138;9.912;2023-09-18T13:36:24;28.17;;;6.82;;
52740;SDS011;38634;52.138;9.912;2023-09-18T13:39:09;17.60;;;4.47;;
52740;SDS011;38634;52.138;9.912;2023-09-18T13:41:54;16.70;;;4.70;;
52740;SDS011;38634;52.138;9.912;2023-09-18T13:44:40;35.17;;;8.30;;
52740;SDS011;38634;52.138;9.912;2023-09-18T13:47:25;26.55;;;6.30;;
52740;SDS011;38634;52.138;9.912;2023-09-18T13:50:13;14.75;;;4.53;;
52740;SDS011;38634;52.138;9.912;2023-09-18T13:52:57;19.10;;;5.28;;
52740;SDS011;38634;52.138;9.912;2023-09-18T13:55:43;27.52;;;6.78;;
52740;SDS011;38634;52.138;9.912;2023-09-18T13:58:31;25.42;;;6.45;;
52740;SDS011;38634;52.138;9.912;2023-09-18T14:01:19;20.08;;;5.65;;
52740;SDS011;38634;52.138;9.912;2023-09-18T14:04:04;27.30;;;6.05;;
52740;SDS011;38634;52.138;9.912;2023-09-18T14:06:55;17.60;;;5.85;;
52740;SDS011;38634;52.138;9.912;2023-09-18T14:09:43;22.08;;;5.45;;
52740;SDS011;38634;52.138;9.912;2023-09-18T14:12:30;27.50;;;6.20;;
52740;SDS011;38634;52.138;9.912;2023-09-18T14:15:18;14.07;;;3.97;;
52740;SDS011;38634;52.138;9.912;2023-09-18T14:18:03;13.65;;;4.28;;
52740;SDS011;38634;52.138;9.912;2023-09-18T14:20:51;37.05;;;8.73;;
52740;SDS011;38634;52.138;9.912;2023-09-18T14:23:36;28.05;;;6.15;;
52740;SDS011;38634;52.138;9.912;2023-09-18T14:26:21;15.43;;;3.75;;
52740;SDS011;38634;52.138;9.912;2023-09-18T14:29:07;18.08;;;4.05;;
52740;SDS011;38634;52.138;9.912;2023-09-18T14:31:52;36.63;;;7.63;;
52740;SDS011;38634;52.138;9.912;2023-09-18T14:34:37;25.25;;;6.05;;
52740;SDS011;38634;52.138;9.912;2023-09-18T14:37:22;12.27;;;3.33;;
52740;SDS011;38634;52.138;9.912;2023-09-18T14:40:07;23.23;;;5.55;;
52740;SDS011;38634;52.138;9.912;2023-09-18T14:42:55;30.30;;;6.85;;
52740;SDS011;38634;52.138;9.912;2023-09-18T14:45:43;13.38;;;3.90;;
52740;SDS011;38634;52.138;9.912;2023-09-18T14:48:28;19.80;;;4.93;;
52740;SDS011;38634;52.138;9.912;2023-09-18T14:51:14;37.97;;;8.23;;
52740;SDS011;38634;52.138;9.912;2023-09-18T14:53:59;30.05;;;6.32;;
52740;SDS011;38634;52.138;9.912;2023-09-18T14:56:45;20.55;;;7.57;;
52740;SDS011;38634;52.138;9.912;2023-09-18T14:59:30;20.40;;;5.28;;
52740;SDS011;38634;52.138;9.912;2023-09-18T15:02:15;39.17;;;8.15;;
52740;SDS011;38634;52.138;9.912;2023-09-18T15:05:01;28.50;;;6.53;;
52740;SDS011;38634;52.138;9.912;2023-09-18T15:07:48;10.90;;;3.58;;
52740;SDS011;38634;52.138;9.912;2023-09-18T15:10:37;36.92;;;7.65;;
52740;SDS011;38634;52.138;9.912;2023-09-18T15:13:22;32.95;;;7.32;;
52740;SDS011;38634;52.138;9.912;2023-09-18T15:16:07;13.93;;;3.92;;
52740;SDS011;38634;52.138;9.912;2023-09-18T15:18:53;17.88;;;4.88;;
52740;SDS011;38634;52.138;9.912;2023-09-18T15:21:38;35.55;;;7.75;;
52740;SDS011;38634;52.138;9.912;2023-09-18T15:24:24;20.20;;;5.82;;
52740;SDS011;38634;52.138;9.912;2023-09-18T15:27:08;15.02;;;4.82;;
52740;SDS011;38634;52.138;9.912;2023-09-18T15:29:53;14.52;;;3.95;;
52740;SDS011;38634;52.138;9.912;2023-09-18T15:32:48;35.00;;;7.35;;
52740;SDS011;38634;52.138;9.912;2023-09-18T15:35:37;14.18;;;3.75;;
52740;SDS011;38634;52.138;9.912;2023-09-18T15:38:22;30.80;;;7.45;;
52740;SDS011;38634;52.138;9.912;2023-09-18T15:41:06;36.88;;;8.07;;
52740;SDS011;38634;52.138;9.912;2023-09-18T15:43:51;18.20;;;4.75;;
52740;SDS011;38634;52.138;9.912;2023-09-18T15:46:36;14.95;;;4.38;;
52740;SDS011;38634;52.138;9.912;2023-09-18T15:49:20;24.48;;;5.90;;
52740;SDS011;38634;52.138;9.912;2023-09-18T15:52:05;29.85;;;7.38;;
52740;SDS011;38634;52.138;9.912;2023-09-18T15:54:50;28.05;;;6.50;;
52740;SDS011;38634;52.138;9.912;2023-09-18T15:57:36;17.80;;;4.95;;
52740;SDS011;38634;52.138;9.912;2023-09-18T16:00:23;24.35;;;6.15;;
52740;SDS011;38634;52.138;9.912;2023-09-18T16:03:07;32.70;;;8.00;;
52740;SDS011;38634;52.138;9.912;2023-09-18T16:05:52;27.13;;;6.93;;
52740;SDS011;38634;52.138;9.912;2023-09-18T16:08:39;18.63;;;5.47;;
52740;SDS011;38634;52.138;9.912;2023-09-18T16:11:24;30.17;;;7.38;;
52740;SDS011;38634;52.138;9.912;2023-09-18T16:14:09;38.75;;;8.02;;
52740;SDS011;38634;52.138;9.912;2023-09-18T16:16:53;25.10;;;6.78;;
52740;SDS011;38634;52.138;9.912;2023-09-18T16:19:38;14.57;;;4.35;;
52740;SDS011;38634;52.138;9.912;2023-09-18T16:22:26;27.08;;;6.80;;
52740;SDS011;38634;52.138;9.912;2023-09-18T16:25:11;36.33;;;7.65;;
52740;SDS011;38634;52.138;9.912;2023-09-18T16:27:55;17.17;;;4.60;;
52740;SDS011;38634;52.138;9.912;2023-09-18T16:30:40;15.48;;;4.90;;
52740;SDS011;38634;52.138;9.912;2023-09-18T16:33:25;31.42;;;6.93;;
52740;SDS011;38634;52.138;9.912;2023-09-18T16:36:09;35.38;;;7.57;;
52740;SDS011;38634;52.138;9.912;2023-09-18T16:38:54;26.48;;;5.95;;
52740;SDS011;38634;52.138;9.912;2023-09-18T16:41:39;14.32;;;4.70;;
52740;SDS011;38634;52.138;9.912;2023-09-18T16:44:23;18.73;;;4.95;;
52740;SDS011;38634;52.138;9.912;2023-09-18T16:47:09;25.23;;;6.90;;
52740;SDS011;38634;52.138;9.912;2023-09-18T16:49:53;23.25;;;5.30;;
52740;SDS011;38634;52.138;9.912;2023-09-18T16:52:38;12.63;;;4.10;;
52740;SDS011;38634;52.138;9.912;2023-09-18T16:55:29;33.70;;;8.35;;
52740;SDS011;38634;52.138;9.912;2023-09-18T16:58:14;29.75;;;7.35;;
52740;SDS011;38634;52.138;9.912;2023-09-18T17:00:59;10.45;;;3.38;;
52740;SDS011;38634;52.138;9.912;2023-09-18T17:03:47;22.08;;;5.93;;
52740;SDS011;38634;52.138;9.912;2023-09-18T17:06:38;27.05;;;6.97;;
52740;SDS011;38634;52.138;9.912;2023-09-18T17:09:22;16.02;;;4.50;;
52740;SDS011;38634;52.138;9.912;2023-09-18T17:12:07;13.48;;;3.58;;
52740;SDS011;38634;52.138;9.912;2023-09-18T17:15:02;25.10;;;6.18;;
52740;SDS011;38634;52.138;9.912;2023-09-18T17:17:49;10.70;;;3.42;;
52740;SDS011;38634;52.138;9.912;2023-09-18T17:20:37;33.20;;;7.72;;
52740;SDS011;38634;52.138;9.912;2023-09-18T17:23:22;21.00;;;5.25;;
52740;SDS011;38634;52.138;9.912;2023-09-18T17:26:07;12.60;;;3.83;;
52740;SDS011;38634;52.138;9.912;2023-09-18T17:28:51;7.15;;;3.22;;
52740;SDS011;38634;52.138;9.912;2023-09-18T17:31:36;11.02;;;4.00;;
52740;SDS011;38634;52.138;9.912;2023-09-18T17:34:27;17.52;;;4.57;;
52740;SDS011;38634;52.138;9.912;2023-09-18T17:37:11;8.73;;;3.33;;
52740;SDS011;38634;52.138;9.912;2023-09-18T17:39:57;10.32;;;3.65;;
52740;SDS011;38634;52.138;9.912;2023-09-18T17:42:41;18.25;;;6.75;;
52740;SDS011;38634;52.138;9.912;2023-09-18T17:45:26;32.58;;;8.23;;
52740;SDS011;38634;52.138;9.912;2023-09-18T17:48:11;10.05;;;3.30;;
52740;SDS011;38634;52.138;9.912;2023-09-18T17:50:56;8.35;;;3.67;;
52740;SDS011;38634;52.138;9.912;2023-09-18T17:53:44;15.13;;;6.65;;
52740;SDS011;38634;52.138;9.912;2023-09-18T17:56:28;12.75;;;5.43;;
52740;SDS011;38634;52.138;9.912;2023-09-18T17:59:13;8.15;;;3.75;;
52740;SDS011;38634;52.138;9.912;2023-09-18T18:01:59;9.60;;;4.13;;
52740;SDS011;38634;52.138;9.912;2023-09-18T18:04:44;12.23;;;4.95;;
52740;SDS011;38634;52.138;9.912;2023-09-18T18:07:29;12.32;;;5.70;;
52740;SDS011;38634;52.138;9.912;2023-09-18T18:10:14;6.07;;;3.20;;
52740;SDS011;38634;52.138;9.912;2023-09-18T18:12:58;6.72;;;3.40;;
52740;SDS011;38634;52.138;9.912;2023-09-18T18:15:43;10.10;;;5.00;;
52740;SDS011;38634;52.138;9.912;2023-09-18T18:18:27;12.50;;;5.07;;
52740;SDS011;38634;52.138;9.912;2023-09-18T18:21:12;12.55;;;4.57;;
52740;SDS011;38634;52.138;9.912;2023-09-18T18:23:59;6.45;;;2.90;;
52740;SDS011;38634;52.138;9.912;2023-09-18T18:26:46;19.73;;;7.15;;
52740;SDS011;38634;52.138;9.912;2023-09-18T18:29:32;14.98;;;6.25;;
52740;SDS011;38634;52.138;9.912;2023-09-18T18:32:16;8.68;;;3.92;;
52740;SDS011;38634;52.138;9.912;2023-09-18T18:35:01;9.43;;;3.40;;
52740;SDS011;38634;52.138;9.912;2023-09-18T18:37:46;15.68;;;5.82;;
52740;SDS011;38634;52.138;9.912;2023-09-18T18:40:32;16.05;;;5.93;;
52740;SDS011;38634;52.138;9.912;2023-09-18T18:43:19;8.10;;;3.63;;
52740;SDS011;38634;52.138;9.912;2023-09-18T18:46:04;8.10;;;3.72;;
52740;SDS011;38634;52.138;9.912;2023-09-18T18:48:50;14.57;;;6.28;;
52740;SDS011;38634;52.138;9.912;2023-09-18T18:51:35;17.83;;;6.85;;
52740;SDS011;38634;52.138;9.912;2023-09-18T18:54:22;7.47;;;3.65;;
52740;SDS011;38634;52.138;9.912;2023-09-18T18:57:08;32.75;;;7.38;;
52740;SDS011;38634;52.138;9.912;2023-09-18T18:59:53;43.78;;;8.80;;
52740;SDS011;38634;52.138;9.912;2023-09-18T19:02:38;17.55;;;5.82;;
52740;SDS011;38634;52.138;9.912;2023-09-18T19:05:27;7.88;;;3.35;;
52740;SDS011;38634;52.138;9.912;2023-09-18T19:08:13;15.70;;;7.55;;
52740;SDS011;38634;52.138;9.912;2023-09-18T19:10:58;37.25;;;8.38;;
52740;SDS011;38634;52.138;9.912;2023-09-18T19:13:43;22.80;;;6.03;;
52740;SDS011;38634;52.138;9.912;2023-09-18T19:16:30;11.70;;;4.30;;
52740;SDS011;38634;52.138;9.912;2023-09-18T19:19:14;15.30;;;6.20;;
52740;SDS011;38634;52.138;9.912;2023-09-18T19:22:01;15.07;;;5.72;;
52740;SDS011;38634;52.138;9.912;2023-09-18T19:24:48;7.35;;;3.47;;
52740;SDS011;38634;52.138;9.912;2023-09-18T19:27:33;12.25;;;5.03;;
52740;SDS011;38634;52.138;9.912;2023-09-18T19:30:20;16.55;;;6.28;;
52740;SDS011;38634;52.138;9.912;2023-09-18T19:33:05;14.32;;;4.97;;
52740;SDS011;38634;52.138;9.912;2023-09-18T19:35:51;9.18;;;3.72;;
52740;SDS011;38634;52.138;9.912;2023-09-18T19:38:37;27.50;;;7.07;;
52740;SDS011;38634;52.138;9.912;2023-09-18T19:41:22;21.83;;;8.07;;
52740;SDS011;38634;52.138;9.912;2023-09-18T19:44:07;14.18;;;6.03;;
52740;SDS011;38634;52.138;9.912;2023-09-18T19:46:52;12.38;;;5.68;;
52740;SDS011;38634;52.138;9.912;2023-09-18T19:49:43;13.38;;;5.03;;
52740;SDS011;38634;52.138;9.912;2023-09-18T19:52:41;25.98;;;7.03;;
52740;SDS011;38634;52.138;9.912;2023-09-18T19:55:26;23.63;;;7.22;;
52740;SDS011;38634;52.138;9.912;2023-09-18T19:58:10;14.75;;;6.10;;
52740;SDS011;38634;52.138;9.912;2023-09-18T20:00:57;7.65;;;3.67;;
52740;SDS011;38634;52.138;9.912;2023-09-18T20:03:42;7.18;;;3.67;;
52740;SDS011;38634;52.138;9.912;2023-09-18T20:06:27;15.07;;;6.57;;
52740;SDS011;38634;52.138;9.912;2023-09-18T20:09:13;17.02;;;6.20;;
52740;SDS011;38634;52.138;9.912;2023-09-18T20:11:58;11.88;;;3.80;;
52740;SDS011;38634;52.138;9.912;2023-09-18T20:14:43;5.93;;;2.85;;
52740;SDS011;38634;52.138;9.912;2023-09-18T20:17:28;7.90;;;3.05;;
52740;SDS011;38634;52.138;9.912;2023-09-18T20:20:13;7.40;;;2.65;;
52740;SDS011;38634;52.138;9.912;2023-09-18T20:23:01;8.07;;;3.00;;
52740;SDS011;38634;52.138;9.912;2023-09-18T20:25:46;5.38;;;2.40;;
52740;SDS011;38634;52.138;9.912;2023-09-18T20:28:31;7.72;;;3.35;;
52740;SDS011;38634;52.138;9.912;2023-09-18T20:31:15;5.53;;;2.45;;
52740;SDS011;38634;52.138;9.912;2023-09-18T20:34:00;8.73;;;3.42;;
52740;SDS011;38634;52.138;9.912;2023-09-18T20:36:44;7.65;;;3.42;;
52740;SDS011;38634;52.138;9.912;2023-09-18T20:39:30;6.68;;;2.72;;
52740;SDS011;38634;52.138;9.912;2023-09-18T20:42:14;7.13;;;2.72;;
52740;SDS011;38634;52.138;9.912;2023-09-18T20:44:59;7.22;;;2.67;;
52740;SDS011;38634;52.138;9.912;2023-09-18T20:47:44;5.75;;;2.80;;
52740;SDS011;38634;52.138;9.912;2023-09-18T20:50:29;7.82;;;2.85;;
52740;SDS011;38634;52.138;9.912;2023-09-18T20:53:13;5.30;;;2.22;;
52740;SDS011;38634;52.138;9.912;2023-09-18T20:56:00;6.45;;;2.40;;
52740;SDS011;38634;52.138;9.912;2023-09-18T20:58:47;5.45;;;2.40;;
52740;SDS011;38634;52.138;9.912;2023-09-18T21:01:32;7.70;;;1.98;;
52740;SDS011;38634;52.138;9.912;2023-09-18T21:04:18;6.68;;;2.70;;
52740;SDS011;38634;52.138;9.912;2023-09-18T21:07:02;7.53;;;4.05;;
52740;SDS011;38634;52.138;9.912;2023-09-18T21:09:47;10.63;;;3.67;;
52740;SDS011;38634;52.138;9.912;2023-09-18T21:12:33;6.90;;;2.95;;
52740;SDS011;38634;52.138;9.912;2023-09-18T21:15:18;9.77;;;2.85;;
52740;SDS011;38634;52.138;9.912;2023-09-18T21:18:03;15.52;;;3.80;;
52740;SDS011;38634;52.138;9.912;2023-09-18T21:20:48;13.15;;;3.33;;
52740;SDS011;38634;52.138;9.912;2023-09-18T21:23:32;13.27;;;3.38;;
52740;SDS011;38634;52.138;9.912;2023-09-18T21:26:17;10.23;;;2.90;;
52740;SDS011;38634;52.138;9.912;2023-09-18T21:29:02;8.65;;;2.40;;
52740;SDS011;38634;52.138;9.912;2023-09-18T21:31:46;10.05;;;3.15;;
52740;SDS011;38634;52.138;9.912;2023-09-18T21:34:33;9.02;;;2.25;;
52740;SDS011;38634;52.138;9.912;2023-09-18T21:37:19;9.25;;;2.95;;
52740;SDS011;38634;52.138;9.912;2023-09-18T21:40:05;6.15;;;2.78;;
52740;SDS011;38634;52.138;9.912;2023-09-18T21:42:51;6.40;;;2.60;;
52740;SDS011;38634;52.138;9.912;2023-09-18T21:45:36;4.80;;;2.42;;
52740;SDS011;38634;52.138;9.912;2023-09-18T21:48:20;6.03;;;2.80;;
52740;SDS011;38634;52.138;9.912;2023-09-18T21:51:05;5.28;;;2.40;;
52740;SDS011;38634;52.138;9.912;2023-09-18T21:53:51;4.90;;;2.30;;
52740;SDS011;38634;52.138;9.912;2023-09-18T21:56:36;5.18;;;2.83;;
52740;SDS011;38634;52.138;9.912;2023-09-18T21:59:21;3.22;;;2.38;;
52740;SDS011;38634;52.138;9.912;2023-09-18T22:02:05;3.17;;;2.63;;
52740;SDS011;38634;52.138;9.912;2023-09-18T22:04:50;5.88;;;2.38;;
52740;SDS011;38634;52.138;9.912;2023-09-18T22:07:35;5.60;;;2.55;;
52740;SDS011;38634;52.138;9.912;2023-09-18T22:10:19;6.63;;;2.45;;
52740;SDS011;38634;52.138;9.912;2023-09-18T22:13:04;3.17;;;2.00;;
52740;SDS011;38634;52.138;9.912;2023-09-18T22:15:48;3.63;;;2.20;;
52740;SDS011;38634;52.138;9.912;2023-09-18T22:18:33;3.45;;;2.47;;
52740;SDS011;38634;52.138;9.912;2023-09-18T22:21:18;3.63;;;2.22;;
52740;SDS011;38634;52.138;9.912;2023-09-18T22:24:03;5.13;;;2.35;;
52740;SDS011;38634;52.138;9.912;2023-09-18T22:26:48;4.53;;;2.35;;
52740;SDS011;38634;52.138;9.912;2023-09-18T22:29:33;5.22;;;2.50;;
52740;SDS011;38634;52.138;9.912;2023-09-18T22:32:17;2.72;;;1.85;;
52740;SDS011;38634;52.138;9.912;2023-09-18T22:35:06;21.60;;;9.60;;
52740;SDS011;38634;52.138;9.912;2023-09-18T22:37:59;21.05;;;12.93;;
52740;SDS011;38634;52.138;9.912;2023-09-18T22:54:59;3.80;;;2.75;;
52740;SDS011;38634;52.138;9.912;2023-09-18T22:57:45;6.45;;;3.72;;
52740;SDS011;38634;52.138;9.912;2023-09-18T23:00:50;5.10;;;2.47;;
52740;SDS011;38634;52.138;9.912;2023-09-18T23:03:36;4.43;;;2.42;;
52740;SDS011;38634;52.138;9.912;2023-09-18T23:06:20;4.88;;;2.50;;